Brentwood, New Hampshire
Current Conditions -  °F | °C
As of 5:58 PM on Wednesday 22 Oct 2014 (Local Time) from KPSM Reporting Station
Light Rain Light Rain  
Wind Chill:   Ceiling: 400
Heat Index:   Visibility: 1mi
Dew Point:   Wind: 18mph
Humidity: 91%   Direction: 30°NNE
Pressure: 29.96"   Gusts: 25mph
Location:  42.9832°N, 70.9915°W
Report Text: KPSM 222158Z 03016G22KT 1SM R34/P6000FT -RA BR OVC004 09/08 A2996 RMK AO2A PK WND 03031/08 SLP149 P0001 T00900076
Loading
Personal Weather Stations






























Interactive Weather Map
Tropical Storm Tracking
New forecast layout! Learn more

10-Day Weather Forecast

Advertisements
Track Severe Weather on mobile